sensor_id;sensor_type;location;lat;lon;timestamp;temperature;humidity
75170;SHT31;63749;49.186;9.222;2023-04-24T00:02:03;11.70;80.72
75170;SHT31;63749;49.186;9.222;2023-04-24T00:04:29;11.84;80.00
75170;SHT31;63749;49.186;9.222;2023-04-24T00:06:56;11.86;80.20
75170;SHT31;63749;49.186;9.222;2023-04-24T00:09:25;11.89;79.75
75170;SHT31;63749;49.186;9.222;2023-04-24T00:11:51;11.98;79.49
75170;SHT31;63749;49.186;9.222;2023-04-24T00:14:16;11.95;79.46
75170;SHT31;63749;49.186;9.222;2023-04-24T00:16:41;11.97;79.49
75170;SHT31;63749;49.186;9.222;2023-04-24T00:19:07;11.93;79.94
75170;SHT31;63749;49.186;9.222;2023-04-24T00:21:32;11.94;80.08
75170;SHT31;63749;49.186;9.222;2023-04-24T00:23:58;11.91;79.98
75170;SHT31;63749;49.186;9.222;2023-04-24T00:26:23;11.89;79.87
75170;SHT31;63749;49.186;9.222;2023-04-24T00:28:48;11.94;79.76
75170;SHT31;63749;49.186;9.222;2023-04-24T00:31:14;11.93;79.37
75170;SHT31;63749;49.186;9.222;2023-04-24T00:33:39;11.94;79.60
75170;SHT31;63749;49.186;9.222;2023-04-24T00:36:05;11.93;79.67
75170;SHT31;63749;49.186;9.222;2023-04-24T00:38:31;11.89;79.67
75170;SHT31;63749;49.186;9.222;2023-04-24T00:40:56;11.90;79.61
75170;SHT31;63749;49.186;9.222;2023-04-24T00:43:22;11.83;80.09
75170;SHT31;63749;49.186;9.222;2023-04-24T00:45:47;11.80;79.99
75170;SHT31;63749;49.186;9.222;2023-04-24T00:48:12;11.86;79.66
75170;SHT31;63749;49.186;9.222;2023-04-24T00:50:38;11.87;80.24
75170;SHT31;63749;49.186;9.222;2023-04-24T00:53:04;11.89;79.74
75170;SHT31;63749;49.186;9.222;2023-04-24T00:55:30;11.91;79.84
75170;SHT31;63749;49.186;9.222;2023-04-24T00:57:55;11.90;79.92
75170;SHT31;63749;49.186;9.222;2023-04-24T01:00:21;11.89;80.45
75170;SHT31;63749;49.186;9.222;2023-04-24T01:02:47;11.86;80.21
75170;SHT31;63749;49.186;9.222;2023-04-24T01:05:14;11.89;80.24
75170;SHT31;63749;49.186;9.222;2023-04-24T01:07:45;11.90;80.19
75170;SHT31;63749;49.186;9.222;2023-04-24T01:10:11;11.84;80.34
75170;SHT31;63749;49.186;9.222;2023-04-24T01:12:38;11.86;80.29
75170;SHT31;63749;49.186;9.222;2023-04-24T01:15:03;11.87;80.14
75170;SHT31;63749;49.186;9.222;2023-04-24T01:17:29;11.93;79.83
75170;SHT31;63749;49.186;9.222;2023-04-24T01:19:54;12.00;79.53
75170;SHT31;63749;49.186;9.222;2023-04-24T01:22:22;11.97;80.02
75170;SHT31;63749;49.186;9.222;2023-04-24T01:24:47;12.05;79.37
75170;SHT31;63749;49.186;9.222;2023-04-24T01:27:13;12.14;79.25
75170;SHT31;63749;49.186;9.222;2023-04-24T01:29:39;12.11;80.55
75170;SHT31;63749;49.186;9.222;2023-04-24T01:32:05;11.95;81.86
75170;SHT31;63749;49.186;9.222;2023-04-24T01:34:31;11.77;83.27
75170;SHT31;63749;49.186;9.222;2023-04-24T01:36:56;11.70;83.39
75170;SHT31;63749;49.186;9.222;2023-04-24T01:39:22;11.60;83.31
75170;SHT31;63749;49.186;9.222;2023-04-24T01:41:51;11.55;83.61
75170;SHT31;63749;49.186;9.222;2023-04-24T01:44:17;11.49;83.43
75170;SHT31;63749;49.186;9.222;2023-04-24T01:46:43;11.42;83.72
75170;SHT31;63749;49.186;9.222;2023-04-24T01:49:08;11.53;83.16
75170;SHT31;63749;49.186;9.222;2023-04-24T01:51:33;11.55;83.03
75170;SHT31;63749;49.186;9.222;2023-04-24T01:53:59;11.60;82.95
75170;SHT31;63749;49.186;9.222;2023-04-24T01:56:25;11.62;83.03
75170;SHT31;63749;49.186;9.222;2023-04-24T01:58:52;11.66;82.94
75170;SHT31;63749;49.186;9.222;2023-04-24T02:01:23;11.63;82.93
75170;SHT31;63749;49.186;9.222;2023-04-24T02:03:49;11.60;82.80
75170;SHT31;63749;49.186;9.222;2023-04-24T02:06:14;11.47;83.67
75170;SHT31;63749;49.186;9.222;2023-04-24T02:08:39;11.47;83.42
75170;SHT31;63749;49.186;9.222;2023-04-24T02:11:05;11.49;82.99
75170;SHT31;63749;49.186;9.222;2023-04-24T02:13:31;11.50;83.08
75170;SHT31;63749;49.186;9.222;2023-04-24T02:15:58;11.44;83.60
75170;SHT31;63749;49.186;9.222;2023-04-24T02:18:23;11.44;83.50
75170;SHT31;63749;49.186;9.222;2023-04-24T02:20:48;11.44;83.26
75170;SHT31;63749;49.186;9.222;2023-04-24T02:23:14;11.42;83.72
75170;SHT31;63749;49.186;9.222;2023-04-24T02:25:40;11.44;83.50
75170;SHT31;63749;49.186;9.222;2023-04-24T02:28:05;11.43;83.24
75170;SHT31;63749;49.186;9.222;2023-04-24T02:30:31;11.47;83.03
75170;SHT31;63749;49.186;9.222;2023-04-24T02:32:56;11.52;83.04
75170;SHT31;63749;49.186;9.222;2023-04-24T02:35:22;11.60;82.43
75170;SHT31;63749;49.186;9.222;2023-04-24T02:37:47;11.65;82.22
75170;SHT31;63749;49.186;9.222;2023-04-24T02:40:12;11.70;82.02
75170;SHT31;63749;49.186;9.222;2023-04-24T02:42:38;11.76;82.02
75170;SHT31;63749;49.186;9.222;2023-04-24T02:45:03;11.79;81.49
75170;SHT31;63749;49.186;9.222;2023-04-24T02:47:30;11.71;82.40
75170;SHT31;63749;49.186;9.222;2023-04-24T02:49:55;11.63;81.86
75170;SHT31;63749;49.186;9.222;2023-04-24T02:52:21;11.62;81.94
75170;SHT31;63749;49.186;9.222;2023-04-24T02:54:46;11.49;82.37
75170;SHT31;63749;49.186;9.222;2023-04-24T02:57:11;11.52;81.84
75170;SHT31;63749;49.186;9.222;2023-04-24T02:59:37;11.36;82.54
75170;SHT31;63749;49.186;9.222;2023-04-24T03:02:02;11.40;82.41
75170;SHT31;63749;49.186;9.222;2023-04-24T03:04:27;11.40;82.28
75170;SHT31;63749;49.186;9.222;2023-04-24T03:06:53;11.53;81.96
75170;SHT31;63749;49.186;9.222;2023-04-24T03:09:22;11.59;81.23
75170;SHT31;63749;49.186;9.222;2023-04-24T03:11:48;11.63;81.51
75170;SHT31;63749;49.186;9.222;2023-04-24T03:14:14;11.76;80.85
75170;SHT31;63749;49.186;9.222;2023-04-24T03:16:39;11.81;80.78
75170;SHT31;63749;49.186;9.222;2023-04-24T03:19:05;11.84;80.78
75170;SHT31;63749;49.186;9.222;2023-04-24T03:21:30;11.70;81.66
75170;SHT31;63749;49.186;9.222;2023-04-24T03:23:55;11.60;81.99
75170;SHT31;63749;49.186;9.222;2023-04-24T03:26:21;11.60;82.00
75170;SHT31;63749;49.186;9.222;2023-04-24T03:28:46;11.60;82.20
75170;SHT31;63749;49.186;9.222;2023-04-24T03:31:11;11.59;82.21
75170;SHT31;63749;49.186;9.222;2023-04-24T03:33:37;11.56;82.61
75170;SHT31;63749;49.186;9.222;2023-04-24T03:36:02;11.65;81.88
75170;SHT31;63749;49.186;9.222;2023-04-24T03:38:28;11.63;82.23
75170;SHT31;63749;49.186;9.222;2023-04-24T03:40:53;11.66;82.09
75170;SHT31;63749;49.186;9.222;2023-04-24T03:43:19;11.65;82.34
75170;SHT31;63749;49.186;9.222;2023-04-24T03:45:44;11.71;82.03
75170;SHT31;63749;49.186;9.222;2023-04-24T03:48:09;11.74;81.65
75170;SHT31;63749;49.186;9.222;2023-04-24T03:50:35;11.73;81.96
75170;SHT31;63749;49.186;9.222;2023-04-24T03:53:00;11.69;82.31
75170;SHT31;63749;49.186;9.222;2023-04-24T03:55:25;11.67;82.61
75170;SHT31;63749;49.186;9.222;2023-04-24T03:57:50;11.76;82.33
75170;SHT31;63749;49.186;9.222;2023-04-24T04:00:16;11.77;82.42
75170;SHT31;63749;49.186;9.222;2023-04-24T04:02:41;11.89;82.09
75170;SHT31;63749;49.186;9.222;2023-04-24T04:05:07;11.90;81.57
75170;SHT31;63749;49.186;9.222;2023-04-24T04:07:33;12.13;80.85
75170;SHT31;63749;49.186;9.222;2023-04-24T04:09:58;12.07;81.19
75170;SHT31;63749;49.186;9.222;2023-04-24T04:12:24;12.04;81.42
75170;SHT31;63749;49.186;9.222;2023-04-24T04:14:49;11.84;82.88
75170;SHT31;63749;49.186;9.222;2023-04-24T04:17:14;11.60;85.25
75170;SHT31;63749;49.186;9.222;2023-04-24T04:19:40;11.22;89.34
75170;SHT31;63749;49.186;9.222;2023-04-24T04:22:05;10.84;91.37
75170;SHT31;63749;49.186;9.222;2023-04-24T04:24:33;10.63;91.75
75170;SHT31;63749;49.186;9.222;2023-04-24T04:26:59;10.49;92.63
75170;SHT31;63749;49.186;9.222;2023-04-24T04:29:25;10.37;92.81
75170;SHT31;63749;49.186;9.222;2023-04-24T04:31:51;10.26;93.24
75170;SHT31;63749;49.186;9.222;2023-04-24T04:34:16;10.19;91.65
75170;SHT31;63749;49.186;9.222;2023-04-24T04:36:42;10.03;92.08
75170;SHT31;63749;49.186;9.222;2023-04-24T04:39:08;9.95;90.79
75170;SHT31;63749;49.186;9.222;2023-04-24T04:41:33;9.91;91.36
75170;SHT31;63749;49.186;9.222;2023-04-24T04:44:00;9.85;91.80
75170;SHT31;63749;49.186;9.222;2023-04-24T04:46:26;9.82;91.82
75170;SHT31;63749;49.186;9.222;2023-04-24T04:48:52;9.74;91.96
75170;SHT31;63749;49.186;9.222;2023-04-24T04:51:18;9.74;91.77
75170;SHT31;63749;49.186;9.222;2023-04-24T04:53:44;9.78;91.20
75170;SHT31;63749;49.186;9.222;2023-04-24T04:56:09;9.70;92.28
75170;SHT31;63749;49.186;9.222;2023-04-24T04:58:35;9.71;92.24
75170;SHT31;63749;49.186;9.222;2023-04-24T05:01:00;9.71;92.23
75170;SHT31;63749;49.186;9.222;2023-04-24T05:03:25;9.64;92.56
75170;SHT31;63749;49.186;9.222;2023-04-24T05:05:51;9.67;91.94
75170;SHT31;63749;49.186;9.222;2023-04-24T05:08:16;9.71;92.10
75170;SHT31;63749;49.186;9.222;2023-04-24T05:10:41;9.64;91.79
75170;SHT31;63749;49.186;9.222;2023-04-24T05:13:07;9.67;91.94
75170;SHT31;63749;49.186;9.222;2023-04-24T05:15:32;9.61;92.03
75170;SHT31;63749;49.186;9.222;2023-04-24T05:17:57;9.50;92.03
75170;SHT31;63749;49.186;9.222;2023-04-24T05:20:23;9.48;91.88
75170;SHT31;63749;49.186;9.222;2023-04-24T05:22:48;9.41;92.06
75170;SHT31;63749;49.186;9.222;2023-04-24T05:25:14;9.38;92.06
75170;SHT31;63749;49.186;9.222;2023-04-24T05:27:40;9.37;92.34
75170;SHT31;63749;49.186;9.222;2023-04-24T05:30:06;9.28;92.35
75170;SHT31;63749;49.186;9.222;2023-04-24T05:32:31;9.24;92.99
75170;SHT31;63749;49.186;9.222;2023-04-24T05:34:57;9.31;92.15
75170;SHT31;63749;49.186;9.222;2023-04-24T05:37:22;9.43;92.13
75170;SHT31;63749;49.186;9.222;2023-04-24T05:39:47;9.43;91.94
75170;SHT31;63749;49.186;9.222;2023-04-24T05:42:13;9.54;92.16
75170;SHT31;63749;49.186;9.222;2023-04-24T05:44:38;9.67;91.72
75170;SHT31;63749;49.186;9.222;2023-04-24T05:47:03;9.78;91.09
75170;SHT31;63749;49.186;9.222;2023-04-24T05:49:29;9.85;91.18
75170;SHT31;63749;49.186;9.222;2023-04-24T05:51:54;9.82;91.55
75170;SHT31;63749;49.186;9.222;2023-04-24T05:54:20;9.91;91.23
75170;SHT31;63749;49.186;9.222;2023-04-24T05:56:45;9.93;91.00
75170;SHT31;63749;49.186;9.222;2023-04-24T05:59:11;10.06;90.91
75170;SHT31;63749;49.186;9.222;2023-04-24T06:01:36;10.12;90.09
75170;SHT31;63749;49.186;9.222;2023-04-24T06:04:03;10.23;89.31
75170;SHT31;63749;49.186;9.222;2023-04-24T06:06:29;10.47;88.56
75170;SHT31;63749;49.186;9.222;2023-04-24T06:08:54;10.71;86.93
75170;SHT31;63749;49.186;9.222;2023-04-24T06:11:19;11.01;86.98
75170;SHT31;63749;49.186;9.222;2023-04-24T06:13:45;11.18;85.43
75170;SHT31;63749;49.186;9.222;2023-04-24T06:16:10;11.19;84.91
75170;SHT31;63749;49.186;9.222;2023-04-24T06:18:36;11.29;84.42
75170;SHT31;63749;49.186;9.222;2023-04-24T06:21:01;11.33;83.58
75170;SHT31;63749;49.186;9.222;2023-04-24T06:23:27;11.30;82.77
75170;SHT31;63749;49.186;9.222;2023-04-24T06:25:52;11.26;82.51
75170;SHT31;63749;49.186;9.222;2023-04-24T06:28:18;11.44;80.88
75170;SHT31;63749;49.186;9.222;2023-04-24T06:30:43;11.40;80.62
75170;SHT31;63749;49.186;9.222;2023-04-24T06:33:09;11.30;80.67
75170;SHT31;63749;49.186;9.222;2023-04-24T06:35:35;11.38;80.29
75170;SHT31;63749;49.186;9.222;2023-04-24T06:38:01;11.53;80.70
75170;SHT31;63749;49.186;9.222;2023-04-24T06:40:26;11.43;79.85
75170;SHT31;63749;49.186;9.222;2023-04-24T06:42:51;11.71;80.30
75170;SHT31;63749;49.186;9.222;2023-04-24T06:45:17;11.52;79.75
75170;SHT31;63749;49.186;9.222;2023-04-24T06:47:42;11.67;80.02
75170;SHT31;63749;49.186;9.222;2023-04-24T06:50:08;11.89;79.22
75170;SHT31;63749;49.186;9.222;2023-04-24T06:52:33;12.08;77.69
75170;SHT31;63749;49.186;9.222;2023-04-24T06:55:02;12.16;76.47
75170;SHT31;63749;49.186;9.222;2023-04-24T06:57:28;12.27;76.77
75170;SHT31;63749;49.186;9.222;2023-04-24T06:59:54;12.42;77.29
75170;SHT31;63749;49.186;9.222;2023-04-24T07:02:19;12.50;77.03
75170;SHT31;63749;49.186;9.222;2023-04-24T07:04:45;12.46;76.08
75170;SHT31;63749;49.186;9.222;2023-04-24T07:07:12;12.35;76.44
75170;SHT31;63749;49.186;9.222;2023-04-24T07:09:39;12.46;76.43
75170;SHT31;63749;49.186;9.222;2023-04-24T07:12:08;12.41;75.81
75170;SHT31;63749;49.186;9.222;2023-04-24T07:14:33;12.45;74.93
75170;SHT31;63749;49.186;9.222;2023-04-24T07:16:58;12.39;72.50
75170;SHT31;63749;49.186;9.222;2023-04-24T07:19:24;12.50;72.70
75170;SHT31;63749;49.186;9.222;2023-04-24T07:21:49;12.56;72.29
75170;SHT31;63749;49.186;9.222;2023-04-24T07:24:15;12.68;71.63
75170;SHT31;63749;49.186;9.222;2023-04-24T07:26:40;12.63;70.64
75170;SHT31;63749;49.186;9.222;2023-04-24T07:29:06;12.59;70.29
75170;SHT31;63749;49.186;9.222;2023-04-24T07:31:32;12.56;70.24
75170;SHT31;63749;49.186;9.222;2023-04-24T07:33:57;12.46;68.20
75170;SHT31;63749;49.186;9.222;2023-04-24T07:36:23;12.25;67.35
75170;SHT31;63749;49.186;9.222;2023-04-24T07:38:49;12.41;67.90
75170;SHT31;63749;49.186;9.222;2023-04-24T07:41:14;12.49;68.42
75170;SHT31;63749;49.186;9.222;2023-04-24T07:43:41;12.53;66.64
75170;SHT31;63749;49.186;9.222;2023-04-24T07:46:07;12.68;67.79
75170;SHT31;63749;49.186;9.222;2023-04-24T07:48:33;12.78;67.32
75170;SHT31;63749;49.186;9.222;2023-04-24T07:50:58;12.79;66.63
75170;SHT31;63749;49.186;9.222;2023-04-24T07:53:23;12.80;64.61
75170;SHT31;63749;49.186;9.222;2023-04-24T07:55:49;12.78;65.04
75170;SHT31;63749;49.186;9.222;2023-04-24T07:58:14;12.95;64.58
75170;SHT31;63749;49.186;9.222;2023-04-24T08:00:40;13.02;65.08
75170;SHT31;63749;49.186;9.222;2023-04-24T08:03:05;12.80;65.84
75170;SHT31;63749;49.186;9.222;2023-04-24T08:05:31;12.65;66.06
75170;SHT31;63749;49.186;9.222;2023-04-24T08:07:56;12.49;64.53
75170;SHT31;63749;49.186;9.222;2023-04-24T08:10:23;12.45;64.74
75170;SHT31;63749;49.186;9.222;2023-04-24T08:12:48;12.49;65.03
75170;SHT31;63749;49.186;9.222;2023-04-24T08:15:13;12.63;65.29
75170;SHT31;63749;49.186;9.222;2023-04-24T08:17:39;12.55;65.31
75170;SHT31;63749;49.186;9.222;2023-04-24T08:20:05;12.65;65.92
75170;SHT31;63749;49.186;9.222;2023-04-24T08:22:31;12.60;65.36
75170;SHT31;63749;49.186;9.222;2023-04-24T08:24:57;12.78;65.51
75170;SHT31;63749;49.186;9.222;2023-04-24T08:27:26;12.70;63.61
75170;SHT31;63749;49.186;9.222;2023-04-24T08:29:53;12.63;64.43
75170;SHT31;63749;49.186;9.222;2023-04-24T08:32:18;12.58;64.46
75170;SHT31;63749;49.186;9.222;2023-04-24T08:34:43;12.68;65.11
75170;SHT31;63749;49.186;9.222;2023-04-24T08:37:09;12.76;65.46
75170;SHT31;63749;49.186;9.222;2023-04-24T08:39:34;12.59;65.23
75170;SHT31;63749;49.186;9.222;2023-04-24T08:42:00;12.42;67.16
75170;SHT31;63749;49.186;9.222;2023-04-24T08:44:32;12.29;66.93
75170;SHT31;63749;49.186;9.222;2023-04-24T08:46:57;12.04;69.41
75170;SHT31;63749;49.186;9.222;2023-04-24T08:49:23;11.80;68.82
75170;SHT31;63749;49.186;9.222;2023-04-24T08:51:50;11.71;69.54
75170;SHT31;63749;49.186;9.222;2023-04-24T08:54:16;11.62;70.73
75170;SHT31;63749;49.186;9.222;2023-04-24T08:56:44;11.62;71.97
75170;SHT31;63749;49.186;9.222;2023-04-24T08:59:10;11.55;73.43
75170;SHT31;63749;49.186;9.222;2023-04-24T09:01:37;11.60;72.20
75170;SHT31;63749;49.186;9.222;2023-04-24T09:04:07;11.58;68.26
75170;SHT31;63749;49.186;9.222;2023-04-24T09:06:34;11.42;68.34
75170;SHT31;63749;49.186;9.222;2023-04-24T09:09:01;11.39;66.96
75170;SHT31;63749;49.186;9.222;2023-04-24T09:11:30;11.84;66.14
75170;SHT31;63749;49.186;9.222;2023-04-24T09:13:56;12.24;65.59
75170;SHT31;63749;49.186;9.222;2023-04-24T09:16:21;12.38;63.51
75170;SHT31;63749;49.186;9.222;2023-04-24T09:18:49;12.55;62.59
75170;SHT31;63749;49.186;9.222;2023-04-24T09:21:15;12.32;63.64
75170;SHT31;63749;49.186;9.222;2023-04-24T09:23:40;12.76;63.05
75170;SHT31;63749;49.186;9.222;2023-04-24T09:26:06;13.03;62.31
75170;SHT31;63749;49.186;9.222;2023-04-24T09:28:38;13.33;61.43
75170;SHT31;63749;49.186;9.222;2023-04-24T09:31:14;13.34;60.38
75170;SHT31;63749;49.186;9.222;2023-04-24T09:33:54;13.36;60.92
75170;SHT31;63749;49.186;9.222;2023-04-24T09:36:30;13.04;61.10
75170;SHT31;63749;49.186;9.222;2023-04-24T09:39:00;12.90;62.37
75170;SHT31;63749;49.186;9.222;2023-04-24T09:41:25;13.04;63.19
75170;SHT31;63749;49.186;9.222;2023-04-24T09:43:53;13.28;61.53
75170;SHT31;63749;49.186;9.222;2023-04-24T09:46:19;13.50;60.13
75170;SHT31;63749;49.186;9.222;2023-04-24T09:48:44;13.71;58.91
75170;SHT31;63749;49.186;9.222;2023-04-24T09:51:10;13.53;58.78
75170;SHT31;63749;49.186;9.222;2023-04-24T09:53:36;13.51;59.21
75170;SHT31;63749;49.186;9.222;2023-04-24T09:56:06;13.54;58.29
75170;SHT31;63749;49.186;9.222;2023-04-24T09:58:32;14.25;57.45
75170;SHT31;63749;49.186;9.222;2023-04-24T10:00:57;14.50;56.19
75170;SHT31;63749;49.186;9.222;2023-04-24T10:03:30;14.10;57.85
75170;SHT31;63749;49.186;9.222;2023-04-24T10:06:00;13.90;57.77
75170;SHT31;63749;49.186;9.222;2023-04-24T10:08:26;13.43;58.87
75170;SHT31;63749;49.186;9.222;2023-04-24T10:10:52;12.96;60.26
75170;SHT31;63749;49.186;9.222;2023-04-24T10:13:17;12.73;61.43
75170;SHT31;63749;49.186;9.222;2023-04-24T10:15:44;12.49;62.21
75170;SHT31;63749;49.186;9.222;2023-04-24T10:18:11;12.44;62.72
75170;SHT31;63749;49.186;9.222;2023-04-24T10:20:38;12.35;62.82
75170;SHT31;63749;49.186;9.222;2023-04-24T10:23:04;12.34;63.29
75170;SHT31;63749;49.186;9.222;2023-04-24T10:25:32;12.29;63.22
75170;SHT31;63749;49.186;9.222;2023-04-24T10:27:58;12.24;62.71
75170;SHT31;63749;49.186;9.222;2023-04-24T10:30:26;12.37;61.74
75170;SHT31;63749;49.186;9.222;2023-04-24T10:32:52;12.44;61.64
75170;SHT31;63749;49.186;9.222;2023-04-24T10:35:18;12.66;61.85
75170;SHT31;63749;49.186;9.222;2023-04-24T10:37:58;12.89;59.27
75170;SHT31;63749;49.186;9.222;2023-04-24T10:40:31;13.28;59.14
75170;SHT31;63749;49.186;9.222;2023-04-24T10:42:57;13.41;58.73
75170;SHT31;63749;49.186;9.222;2023-04-24T10:45:23;13.44;57.22
75170;SHT31;63749;49.186;9.222;2023-04-24T10:48:05;13.50;57.35
75170;SHT31;63749;49.186;9.222;2023-04-24T10:50:51;13.85;57.49
75170;SHT31;63749;49.186;9.222;2023-04-24T10:53:22;14.32;56.91
75170;SHT31;63749;49.186;9.222;2023-04-24T10:58:22;14.61;52.14
75170;SHT31;63749;49.186;9.222;2023-04-24T11:00:58;14.63;51.38
75170;SHT31;63749;49.186;9.222;2023-04-24T11:03:29;14.53;52.96
75170;SHT31;63749;49.186;9.222;2023-04-24T11:08:37;13.81;55.48
75170;SHT31;63749;49.186;9.222;2023-04-24T11:11:16;13.53;56.00
75170;SHT31;63749;49.186;9.222;2023-04-24T11:16:32;13.36;58.35
75170;SHT31;63749;49.186;9.222;2023-04-24T11:19:05;13.34;56.75
75170;SHT31;63749;49.186;9.222;2023-04-24T11:21:41;13.38;57.51
75170;SHT31;63749;49.186;9.222;2023-04-24T11:29:44;12.13;62.68
75170;SHT31;63749;49.186;9.222;2023-04-24T11:34:50;11.36;70.89
75170;SHT31;63749;49.186;9.222;2023-04-24T11:37:16;11.14;71.84
75170;SHT31;63749;49.186;9.222;2023-04-24T11:39:41;11.14;73.24
75170;SHT31;63749;49.186;9.222;2023-04-24T11:42:08;11.33;73.06
75170;SHT31;63749;49.186;9.222;2023-04-24T11:44:35;11.91;71.20
75170;SHT31;63749;49.186;9.222;2023-04-24T11:47:05;12.24;69.73
75170;SHT31;63749;49.186;9.222;2023-04-24T11:49:32;12.56;67.51
75170;SHT31;63749;49.186;9.222;2023-04-24T11:51:57;12.59;66.53
75170;SHT31;63749;49.186;9.222;2023-04-24T11:54:23;12.50;65.59
75170;SHT31;63749;49.186;9.222;2023-04-24T11:56:49;12.58;64.23
75170;SHT31;63749;49.186;9.222;2023-04-24T11:59:14;12.83;64.59
75170;SHT31;63749;49.186;9.222;2023-04-24T12:01:47;13.68;61.66
75170;SHT31;63749;49.186;9.222;2023-04-24T12:04:13;13.62;61.82
75170;SHT31;63749;49.186;9.222;2023-04-24T12:06:39;13.94;61.43
75170;SHT31;63749;49.186;9.222;2023-04-24T12:09:04;13.85;60.53
75170;SHT31;63749;49.186;9.222;2023-04-24T12:11:30;14.16;60.55
75170;SHT31;63749;49.186;9.222;2023-04-24T12:13:56;14.17;60.56
75170;SHT31;63749;49.186;9.222;2023-04-24T12:16:21;14.40;59.02
75170;SHT31;63749;49.186;9.222;2023-04-24T12:18:47;14.20;60.82
75170;SHT31;63749;49.186;9.222;2023-04-24T12:21:22;13.65;60.15
75170;SHT31;63749;49.186;9.222;2023-04-24T12:23:48;13.26;60.86
75170;SHT31;63749;49.186;9.222;2023-04-24T12:26:18;12.87;63.56
75170;SHT31;63749;49.186;9.222;2023-04-24T12:28:46;12.87;63.36
75170;SHT31;63749;49.186;9.222;2023-04-24T12:31:12;13.08;62.51
75170;SHT31;63749;49.186;9.222;2023-04-24T12:33:37;13.40;61.90
75170;SHT31;63749;49.186;9.222;2023-04-24T12:36:03;14.10;60.01
75170;SHT31;63749;49.186;9.222;2023-04-24T12:38:30;14.16;59.85
75170;SHT31;63749;49.186;9.222;2023-04-24T12:41:11;14.70;58.81
75170;SHT31;63749;49.186;9.222;2023-04-24T12:43:37;15.23;57.26
75170;SHT31;63749;49.186;9.222;2023-04-24T12:46:03;15.28;57.55
75170;SHT31;63749;49.186;9.222;2023-04-24T12:48:28;14.70;59.54
75170;SHT31;63749;49.186;9.222;2023-04-24T12:50:55;14.53;58.77
75170;SHT31;63749;49.186;9.222;2023-04-24T12:53:22;14.88;56.50
75170;SHT31;63749;49.186;9.222;2023-04-24T12:55:47;14.53;58.05
75170;SHT31;63749;49.186;9.222;2023-04-24T12:58:19;14.54;58.16
75170;SHT31;63749;49.186;9.222;2023-04-24T13:00:45;14.25;57.28
75170;SHT31;63749;49.186;9.222;2023-04-24T13:03:11;14.57;57.46
75170;SHT31;63749;49.186;9.222;2023-04-24T13:05:37;14.51;56.67
75170;SHT31;63749;49.186;9.222;2023-04-24T13:08:02;14.44;56.74
75170;SHT31;63749;49.186;9.222;2023-04-24T13:10:27;15.60;54.58
75170;SHT31;63749;49.186;9.222;2023-04-24T13:12:53;15.02;55.56
75170;SHT31;63749;49.186;9.222;2023-04-24T13:15:18;14.48;57.40
75170;SHT31;63749;49.186;9.222;2023-04-24T13:17:44;14.08;58.28
75170;SHT31;63749;49.186;9.222;2023-04-24T13:20:09;13.78;58.62
75170;SHT31;63749;49.186;9.222;2023-04-24T13:22:35;13.23;61.39
75170;SHT31;63749;49.186;9.222;2023-04-24T13:25:01;12.41;67.13
75170;SHT31;63749;49.186;9.222;2023-04-24T13:27:26;11.83;71.28
75170;SHT31;63749;49.186;9.222;2023-04-24T13:29:51;11.76;71.62
75170;SHT31;63749;49.186;9.222;2023-04-24T13:32:17;11.89;70.59
75170;SHT31;63749;49.186;9.222;2023-04-24T13:34:42;11.87;70.25
75170;SHT31;63749;49.186;9.222;2023-04-24T13:37:08;11.93;70.46
75170;SHT31;63749;49.186;9.222;2023-04-24T13:39:33;11.95;72.62
75170;SHT31;63749;49.186;9.222;2023-04-24T13:41:58;12.13;71.50
75170;SHT31;63749;49.186;9.222;2023-04-24T13:44:24;12.56;69.56
75170;SHT31;63749;49.186;9.222;2023-04-24T13:46:52;12.65;66.89
75170;SHT31;63749;49.186;9.222;2023-04-24T13:49:20;13.00;65.60
75170;SHT31;63749;49.186;9.222;2023-04-24T13:51:45;14.09;62.08
75170;SHT31;63749;49.186;9.222;2023-04-24T13:54:11;15.67;56.51
75170;SHT31;63749;49.186;9.222;2023-04-24T13:56:36;17.85;51.75
75170;SHT31;63749;49.186;9.222;2023-04-24T13:59:02;18.49;47.67
75170;SHT31;63749;49.186;9.222;2023-04-24T14:01:27;19.57;44.27
75170;SHT31;63749;49.186;9.222;2023-04-24T14:03:53;20.32;42.54
75170;SHT31;63749;49.186;9.222;2023-04-24T14:06:19;20.89;41.46
75170;SHT31;63749;49.186;9.222;2023-04-24T14:08:45;21.78;39.47
75170;SHT31;63749;49.186;9.222;2023-04-24T14:11:10;18.74;44.59
75170;SHT31;63749;49.186;9.222;2023-04-24T14:13:37;19.02;44.01
75170;SHT31;63749;49.186;9.222;2023-04-24T14:16:03;17.95;46.39
75170;SHT31;63749;49.186;9.222;2023-04-24T14:18:28;17.02;47.90
75170;SHT31;63749;49.186;9.222;2023-04-24T14:20:54;16.41;50.02
75170;SHT31;63749;49.186;9.222;2023-04-24T14:23:29;16.15;50.26
75170;SHT31;63749;49.186;9.222;2023-04-24T14:25:55;16.05;51.31
75170;SHT31;63749;49.186;9.222;2023-04-24T14:28:21;16.31;51.47
75170;SHT31;63749;49.186;9.222;2023-04-24T14:30:47;16.11;50.43
75170;SHT31;63749;49.186;9.222;2023-04-24T14:33:13;16.00;50.27
75170;SHT31;63749;49.186;9.222;2023-04-24T14:35:40;15.94;49.37
75170;SHT31;63749;49.186;9.222;2023-04-24T14:38:07;15.77;49.52
75170;SHT31;63749;49.186;9.222;2023-04-24T14:40:32;15.98;49.64
75170;SHT31;63749;49.186;9.222;2023-04-24T14:42:58;15.71;50.77
75170;SHT31;63749;49.186;9.222;2023-04-24T14:45:24;15.50;51.11
75170;SHT31;63749;49.186;9.222;2023-04-24T14:47:49;14.94;52.29
75170;SHT31;63749;49.186;9.222;2023-04-24T14:50:15;14.81;53.12
75170;SHT31;63749;49.186;9.222;2023-04-24T14:52:40;14.60;53.28
75170;SHT31;63749;49.186;9.222;2023-04-24T14:55:06;14.60;53.20
75170;SHT31;63749;49.186;9.222;2023-04-24T14:57:32;14.65;53.80
75170;SHT31;63749;49.186;9.222;2023-04-24T14:59:57;14.71;54.37
75170;SHT31;63749;49.186;9.222;2023-04-24T15:02:23;14.48;54.47
75170;SHT31;63749;49.186;9.222;2023-04-24T15:04:48;14.30;54.96
75170;SHT31;63749;49.186;9.222;2023-04-24T15:07:13;14.47;53.98
75170;SHT31;63749;49.186;9.222;2023-04-24T15:09:39;14.80;53.32
75170;SHT31;63749;49.186;9.222;2023-04-24T15:12:04;15.19;52.60
75170;SHT31;63749;49.186;9.222;2023-04-24T15:14:30;15.98;50.34
75170;SHT31;63749;49.186;9.222;2023-04-24T15:16:55;15.83;50.14
75170;SHT31;63749;49.186;9.222;2023-04-24T15:19:21;15.79;50.96
75170;SHT31;63749;49.186;9.222;2023-04-24T15:21:46;16.35;49.92
75170;SHT31;63749;49.186;9.222;2023-04-24T15:24:11;19.69;42.57
75170;SHT31;63749;49.186;9.222;2023-04-24T15:26:37;20.01;40.88
75170;SHT31;63749;49.186;9.222;2023-04-24T15:29:02;21.58;37.58
75170;SHT31;63749;49.186;9.222;2023-04-24T15:31:28;18.99;42.58
75170;SHT31;63749;49.186;9.222;2023-04-24T15:33:53;17.62;46.03
75170;SHT31;63749;49.186;9.222;2023-04-24T15:36:19;17.20;46.96
75170;SHT31;63749;49.186;9.222;2023-04-24T15:38:46;16.35;49.21
75170;SHT31;63749;49.186;9.222;2023-04-24T15:41:11;15.91;50.50
75170;SHT31;63749;49.186;9.222;2023-04-24T15:43:37;15.19;51.97